sensor_id;sensor_type;location;lat;lon;timestamp;temperature;humidity
31131;DHT22;20292;50.944;4.034;2022-10-20T00:00:55;13.40;99.90
31131;DHT22;20292;50.944;4.034;2022-10-20T00:03:21;13.40;99.90
31131;DHT22;20292;50.944;4.034;2022-10-20T00:05:47;13.30;99.90
31131;DHT22;20292;50.944;4.034;2022-10-20T00:08:12;13.30;99.90
31131;DHT22;20292;50.944;4.034;2022-10-20T00:10:38;13.20;99.90
31131;DHT22;20292;50.944;4.034;2022-10-20T00:13:03;13.20;99.90
31131;DHT22;20292;50.944;4.034;2022-10-20T00:15:29;13.10;99.90
31131;DHT22;20292;50.944;4.034;2022-10-20T00:17:54;13.00;99.90
31131;DHT22;20292;50.944;4.034;2022-10-20T00:20:20;12.90;99.90
31131;DHT22;20292;50.944;4.034;2022-10-20T00:22:45;13.00;99.90
31131;DHT22;20292;50.944;4.034;2022-10-20T00:25:11;13.00;99.90
31131;DHT22;20292;50.944;4.034;2022-10-20T00:27:37;13.00;99.90
31131;DHT22;20292;50.944;4.034;2022-10-20T00:30:03;13.10;99.90
31131;DHT22;20292;50.944;4.034;2022-10-20T00:32:29;13.00;99.90
31131;DHT22;20292;50.944;4.034;2022-10-20T00:34:55;12.90;99.90
31131;DHT22;20292;50.944;4.034;2022-10-20T00:37:21;12.80;99.90
31131;DHT22;20292;50.944;4.034;2022-10-20T00:39:47;12.80;99.90
31131;DHT22;20292;50.944;4.034;2022-10-20T00:42:17;12.80;99.90
31131;DHT22;20292;50.944;4.034;2022-10-20T00:44:57;12.80;99.90
31131;DHT22;20292;50.944;4.034;2022-10-20T00:47:43;12.80;99.90
31131;DHT22;20292;50.944;4.034;2022-10-20T00:52:40;12.70;99.90
31131;DHT22;20292;50.944;4.034;2022-10-20T00:55:07;12.70;99.90
31131;DHT22;20292;50.944;4.034;2022-10-20T00:57:34;12.70;99.90
31131;DHT22;20292;50.944;4.034;2022-10-20T01:00:00;12.70;99.90
31131;DHT22;20292;50.944;4.034;2022-10-20T01:02:26;12.70;99.90
31131;DHT22;20292;50.944;4.034;2022-10-20T01:04:52;12.60;99.90
31131;DHT22;20292;50.944;4.034;2022-10-20T01:07:17;12.60;99.90
31131;DHT22;20292;50.944;4.034;2022-10-20T01:09:43;12.50;99.90
31131;DHT22;20292;50.944;4.034;2022-10-20T01:12:25;12.50;99.90
31131;DHT22;20292;50.944;4.034;2022-10-20T01:15:00;12.60;99.90
31131;DHT22;20292;50.944;4.034;2022-10-20T01:28:11;12.70;99.90
31131;DHT22;20292;50.944;4.034;2022-10-20T01:30:51;12.70;99.90
31131;DHT22;20292;50.944;4.034;2022-10-20T01:36:22;12.70;99.90
31131;DHT22;20292;50.944;4.034;2022-10-20T01:39:04;12.80;99.90
31131;DHT22;20292;50.944;4.034;2022-10-20T01:41:39;12.80;99.90
31131;DHT22;20292;50.944;4.034;2022-10-20T01:44:11;12.80;99.90
31131;DHT22;20292;50.944;4.034;2022-10-20T01:46:40;12.80;99.90
31131;DHT22;20292;50.944;4.034;2022-10-20T01:49:07;12.80;99.90
31131;DHT22;20292;50.944;4.034;2022-10-20T01:51:33;12.80;99.90
31131;DHT22;20292;50.944;4.034;2022-10-20T01:53:59;12.80;99.90
31131;DHT22;20292;50.944;4.034;2022-10-20T01:56:52;12.80;99.90
31131;DHT22;20292;50.944;4.034;2022-10-20T01:59:28;12.90;99.90
31131;DHT22;20292;50.944;4.034;2022-10-20T02:04:52;12.90;99.90
31131;DHT22;20292;50.944;4.034;2022-10-20T02:07:26;12.70;99.90
31131;DHT22;20292;50.944;4.034;2022-10-20T02:13:03;12.60;99.90
31131;DHT22;20292;50.944;4.034;2022-10-20T02:15:31;12.60;99.90
31131;DHT22;20292;50.944;4.034;2022-10-20T02:18:03;12.60;99.90
31131;DHT22;20292;50.944;4.034;2022-10-20T02:20:30;12.60;99.90
31131;DHT22;20292;50.944;4.034;2022-10-20T02:22:57;12.60;99.90
31131;DHT22;20292;50.944;4.034;2022-10-20T02:25:24;12.50;99.90
31131;DHT22;20292;50.944;4.034;2022-10-20T02:27:50;12.60;99.90
31131;DHT22;20292;50.944;4.034;2022-10-20T02:30:17;12.60;99.90
31131;DHT22;20292;50.944;4.034;2022-10-20T02:32:46;12.70;99.90
31131;DHT22;20292;50.944;4.034;2022-10-20T02:35:17;12.80;99.90
31131;DHT22;20292;50.944;4.034;2022-10-20T02:37:43;12.90;99.90
31131;DHT22;20292;50.944;4.034;2022-10-20T02:40:10;12.90;99.90
31131;DHT22;20292;50.944;4.034;2022-10-20T02:42:35;12.80;99.90
31131;DHT22;20292;50.944;4.034;2022-10-20T02:45:02;12.80;99.90
31131;DHT22;20292;50.944;4.034;2022-10-20T02:47:28;12.90;99.90
31131;DHT22;20292;50.944;4.034;2022-10-20T02:49:53;13.00;99.90
31131;DHT22;20292;50.944;4.034;2022-10-20T02:52:19;13.00;99.90
31131;DHT22;20292;50.944;4.034;2022-10-20T02:54:45;12.90;99.90
31131;DHT22;20292;50.944;4.034;2022-10-20T02:57:10;13.00;99.90
31131;DHT22;20292;50.944;4.034;2022-10-20T02:59:36;13.20;99.90
31131;DHT22;20292;50.944;4.034;2022-10-20T03:02:02;13.40;99.90
31131;DHT22;20292;50.944;4.034;2022-10-20T03:04:28;13.60;99.90
31131;DHT22;20292;50.944;4.034;2022-10-20T03:06:53;13.70;99.90
31131;DHT22;20292;50.944;4.034;2022-10-20T03:09:19;13.80;99.90
31131;DHT22;20292;50.944;4.034;2022-10-20T03:11:45;13.90;99.90
31131;DHT22;20292;50.944;4.034;2022-10-20T03:14:11;13.90;99.90
31131;DHT22;20292;50.944;4.034;2022-10-20T03:16:36;13.90;99.90
31131;DHT22;20292;50.944;4.034;2022-10-20T03:19:02;13.90;99.90
31131;DHT22;20292;50.944;4.034;2022-10-20T03:21:28;13.60;99.90
31131;DHT22;20292;50.944;4.034;2022-10-20T03:23:54;13.60;99.90
31131;DHT22;20292;50.944;4.034;2022-10-20T03:26:19;13.50;99.90
31131;DHT22;20292;50.944;4.034;2022-10-20T03:28:45;13.30;99.90
31131;DHT22;20292;50.944;4.034;2022-10-20T03:31:11;13.30;99.90
31131;DHT22;20292;50.944;4.034;2022-10-20T03:33:36;13.20;99.90
31131;DHT22;20292;50.944;4.034;2022-10-20T03:36:03;13.10;99.90
31131;DHT22;20292;50.944;4.034;2022-10-20T03:38:29;13.20;99.90
31131;DHT22;20292;50.944;4.034;2022-10-20T03:40:55;13.30;99.90
31131;DHT22;20292;50.944;4.034;2022-10-20T03:43:21;13.30;99.90
31131;DHT22;20292;50.944;4.034;2022-10-20T03:45:46;13.30;99.90
31131;DHT22;20292;50.944;4.034;2022-10-20T03:48:12;13.20;99.90
31131;DHT22;20292;50.944;4.034;2022-10-20T03:50:38;12.90;99.90
31131;DHT22;20292;50.944;4.034;2022-10-20T03:53:04;12.90;99.90
31131;DHT22;20292;50.944;4.034;2022-10-20T03:55:30;12.90;99.90
31131;DHT22;20292;50.944;4.034;2022-10-20T03:57:56;12.90;99.90
31131;DHT22;20292;50.944;4.034;2022-10-20T04:00:22;12.80;99.90
31131;DHT22;20292;50.944;4.034;2022-10-20T04:02:48;12.80;99.90
31131;DHT22;20292;50.944;4.034;2022-10-20T04:05:18;12.70;99.90
31131;DHT22;20292;50.944;4.034;2022-10-20T04:07:44;12.50;99.90
31131;DHT22;20292;50.944;4.034;2022-10-20T04:10:10;12.50;99.90
31131;DHT22;20292;50.944;4.034;2022-10-20T04:12:36;12.60;99.90
31131;DHT22;20292;50.944;4.034;2022-10-20T04:15:02;12.50;99.90
31131;DHT22;20292;50.944;4.034;2022-10-20T04:17:28;12.50;99.90
31131;DHT22;20292;50.944;4.034;2022-10-20T04:19:54;12.50;99.90
31131;DHT22;20292;50.944;4.034;2022-10-20T04:22:19;12.60;99.90
31131;DHT22;20292;50.944;4.034;2022-10-20T04:24:45;12.70;99.90
31131;DHT22;20292;50.944;4.034;2022-10-20T04:27:11;12.70;99.90
31131;DHT22;20292;50.944;4.034;2022-10-20T04:29:36;12.90;99.90
31131;DHT22;20292;50.944;4.034;2022-10-20T04:32:02;12.90;99.90
31131;DHT22;20292;50.944;4.034;2022-10-20T04:34:28;12.90;99.90
31131;DHT22;20292;50.944;4.034;2022-10-20T04:36:53;12.90;99.90
31131;DHT22;20292;50.944;4.034;2022-10-20T04:39:19;12.90;99.90
31131;DHT22;20292;50.944;4.034;2022-10-20T04:41:44;12.70;99.90
31131;DHT22;20292;50.944;4.034;2022-10-20T04:44:10;12.60;99.90
31131;DHT22;20292;50.944;4.034;2022-10-20T04:46:36;12.70;99.90
31131;DHT22;20292;50.944;4.034;2022-10-20T04:49:01;12.70;99.90
31131;DHT22;20292;50.944;4.034;2022-10-20T04:51:27;12.90;99.90
31131;DHT22;20292;50.944;4.034;2022-10-20T04:53:53;12.90;99.90
31131;DHT22;20292;50.944;4.034;2022-10-20T04:56:19;12.80;99.90
31131;DHT22;20292;50.944;4.034;2022-10-20T04:58:47;12.70;99.90
31131;DHT22;20292;50.944;4.034;2022-10-20T05:01:13;12.60;99.90
31131;DHT22;20292;50.944;4.034;2022-10-20T05:03:38;12.50;99.90
31131;DHT22;20292;50.944;4.034;2022-10-20T05:08:48;12.70;99.90
31131;DHT22;20292;50.944;4.034;2022-10-20T05:11:15;12.70;99.90
31131;DHT22;20292;50.944;4.034;2022-10-20T05:13:41;12.70;99.90
31131;DHT22;20292;50.944;4.034;2022-10-20T05:16:07;12.70;99.90
31131;DHT22;20292;50.944;4.034;2022-10-20T05:18:34;12.90;99.90
31131;DHT22;20292;50.944;4.034;2022-10-20T05:21:08;13.00;99.90
31131;DHT22;20292;50.944;4.034;2022-10-20T05:23:34;13.20;99.90
31131;DHT22;20292;50.944;4.034;2022-10-20T05:26:05;13.20;99.90
31131;DHT22;20292;50.944;4.034;2022-10-20T05:28:31;13.10;99.90
31131;DHT22;20292;50.944;4.034;2022-10-20T05:31:00;13.00;99.90
31131;DHT22;20292;50.944;4.034;2022-10-20T05:33:27;12.90;99.90
31131;DHT22;20292;50.944;4.034;2022-10-20T05:35:53;13.00;99.90
31131;DHT22;20292;50.944;4.034;2022-10-20T05:38:18;13.10;99.90
31131;DHT22;20292;50.944;4.034;2022-10-20T05:40:44;13.20;99.90
31131;DHT22;20292;50.944;4.034;2022-10-20T05:43:09;13.30;99.90
31131;DHT22;20292;50.944;4.034;2022-10-20T05:45:35;13.30;99.90
31131;DHT22;20292;50.944;4.034;2022-10-20T05:48:01;13.50;99.90
31131;DHT22;20292;50.944;4.034;2022-10-20T05:50:26;13.60;99.90
31131;DHT22;20292;50.944;4.034;2022-10-20T05:52:52;13.50;99.90
31131;DHT22;20292;50.944;4.034;2022-10-20T05:55:18;13.50;99.90
31131;DHT22;20292;50.944;4.034;2022-10-20T05:57:44;13.50;99.90
31131;DHT22;20292;50.944;4.034;2022-10-20T06:00:10;13.40;99.90
31131;DHT22;20292;50.944;4.034;2022-10-20T06:02:35;13.40;99.90
31131;DHT22;20292;50.944;4.034;2022-10-20T06:05:02;13.50;99.90
31131;DHT22;20292;50.944;4.034;2022-10-20T06:07:28;13.60;99.90
31131;DHT22;20292;50.944;4.034;2022-10-20T06:09:53;13.60;99.90
31131;DHT22;20292;50.944;4.034;2022-10-20T06:12:19;13.60;99.90
31131;DHT22;20292;50.944;4.034;2022-10-20T06:14:44;13.70;99.90
31131;DHT22;20292;50.944;4.034;2022-10-20T06:17:10;13.90;99.90
31131;DHT22;20292;50.944;4.034;2022-10-20T06:19:36;14.00;99.90
31131;DHT22;20292;50.944;4.034;2022-10-20T06:22:01;14.10;99.90
31131;DHT22;20292;50.944;4.034;2022-10-20T06:24:27;14.30;99.90
31131;DHT22;20292;50.944;4.034;2022-10-20T06:26:52;14.40;99.90
31131;DHT22;20292;50.944;4.034;2022-10-20T06:29:18;14.50;99.90
31131;DHT22;20292;50.944;4.034;2022-10-20T06:31:46;14.70;99.90
31131;DHT22;20292;50.944;4.034;2022-10-20T06:34:15;14.80;99.90
31131;DHT22;20292;50.944;4.034;2022-10-20T06:36:43;14.90;99.90
31131;DHT22;20292;50.944;4.034;2022-10-20T06:39:12;15.00;99.90
31131;DHT22;20292;50.944;4.034;2022-10-20T06:41:38;15.10;99.90
31131;DHT22;20292;50.944;4.034;2022-10-20T06:44:04;15.20;99.90
31131;DHT22;20292;50.944;4.034;2022-10-20T06:46:33;15.30;99.90
31131;DHT22;20292;50.944;4.034;2022-10-20T06:49:00;15.30;99.90
31131;DHT22;20292;50.944;4.034;2022-10-20T06:51:28;15.40;99.90
31131;DHT22;20292;50.944;4.034;2022-10-20T06:53:53;15.50;99.90
31131;DHT22;20292;50.944;4.034;2022-10-20T06:56:21;15.60;99.90
31131;DHT22;20292;50.944;4.034;2022-10-20T06:58:50;15.60;99.90
31131;DHT22;20292;50.944;4.034;2022-10-20T07:01:17;15.70;99.90
31131;DHT22;20292;50.944;4.034;2022-10-20T07:03:44;15.80;99.90
31131;DHT22;20292;50.944;4.034;2022-10-20T07:06:14;15.80;99.90
31131;DHT22;20292;50.944;4.034;2022-10-20T07:08:39;15.80;99.90
31131;DHT22;20292;50.944;4.034;2022-10-20T07:11:07;15.90;99.90
31131;DHT22;20292;50.944;4.034;2022-10-20T07:13:34;15.90;99.90
31131;DHT22;20292;50.944;4.034;2022-10-20T07:16:00;16.00;99.90
31131;DHT22;20292;50.944;4.034;2022-10-20T07:18:28;16.00;99.90
31131;DHT22;20292;50.944;4.034;2022-10-20T07:20:58;16.10;99.90
31131;DHT22;20292;50.944;4.034;2022-10-20T07:23:29;16.10;99.90
31131;DHT22;20292;50.944;4.034;2022-10-20T07:26:07;16.20;99.90
31131;DHT22;20292;50.944;4.034;2022-10-20T07:28:34;16.30;99.90
31131;DHT22;20292;50.944;4.034;2022-10-20T07:31:06;16.40;99.90
31131;DHT22;20292;50.944;4.034;2022-10-20T07:33:32;16.50;99.90
31131;DHT22;20292;50.944;4.034;2022-10-20T07:35:58;16.50;99.90
31131;DHT22;20292;50.944;4.034;2022-10-20T07:38:23;16.50;99.90
31131;DHT22;20292;50.944;4.034;2022-10-20T07:40:49;16.60;99.90
31131;DHT22;20292;50.944;4.034;2022-10-20T07:43:15;16.60;99.90
31131;DHT22;20292;50.944;4.034;2022-10-20T07:45:40;16.70;99.90
31131;DHT22;20292;50.944;4.034;2022-10-20T07:48:06;16.70;99.90
31131;DHT22;20292;50.944;4.034;2022-10-20T07:50:35;16.70;99.90
31131;DHT22;20292;50.944;4.034;2022-10-20T07:53:00;16.70;99.90
31131;DHT22;20292;50.944;4.034;2022-10-20T07:55:26;16.70;99.90
31131;DHT22;20292;50.944;4.034;2022-10-20T07:57:52;16.80;99.90
31131;DHT22;20292;50.944;4.034;2022-10-20T08:00:17;16.90;99.90
31131;DHT22;20292;50.944;4.034;2022-10-20T08:02:43;16.80;99.90
31131;DHT22;20292;50.944;4.034;2022-10-20T08:05:09;16.80;99.90
31131;DHT22;20292;50.944;4.034;2022-10-20T08:07:35;16.90;99.90
31131;DHT22;20292;50.944;4.034;2022-10-20T08:10:01;16.80;99.90
31131;DHT22;20292;50.944;4.034;2022-10-20T08:12:26;16.90;99.90
31131;DHT22;20292;50.944;4.034;2022-10-20T08:14:52;16.90;99.90
31131;DHT22;20292;50.944;4.034;2022-10-20T08:17:18;16.80;99.90
31131;DHT22;20292;50.944;4.034;2022-10-20T08:19:43;16.80;99.90
31131;DHT22;20292;50.944;4.034;2022-10-20T08:22:09;16.80;99.90
31131;DHT22;20292;50.944;4.034;2022-10-20T08:24:35;16.90;99.90
31131;DHT22;20292;50.944;4.034;2022-10-20T08:27:01;16.80;99.90
31131;DHT22;20292;50.944;4.034;2022-10-20T08:29:26;16.90;99.90
31131;DHT22;20292;50.944;4.034;2022-10-20T08:31:52;16.90;99.90
31131;DHT22;20292;50.944;4.034;2022-10-20T08:34:18;16.90;99.90
31131;DHT22;20292;50.944;4.034;2022-10-20T08:36:43;16.90;99.90
31131;DHT22;20292;50.944;4.034;2022-10-20T08:39:09;16.90;99.90
31131;DHT22;20292;50.944;4.034;2022-10-20T08:41:41;16.90;99.90
31131;DHT22;20292;50.944;4.034;2022-10-20T08:44:16;16.80;99.90
31131;DHT22;20292;50.944;4.034;2022-10-20T08:46:43;16.90;99.90
31131;DHT22;20292;50.944;4.034;2022-10-20T08:49:24;16.90;99.90
31131;DHT22;20292;50.944;4.034;2022-10-20T08:51:50;17.00;99.90
31131;DHT22;20292;50.944;4.034;2022-10-20T08:54:16;17.10;99.90
31131;DHT22;20292;50.944;4.034;2022-10-20T08:56:43;17.20;99.90
31131;DHT22;20292;50.944;4.034;2022-10-20T08:59:26;17.10;99.90
31131;DHT22;20292;50.944;4.034;2022-10-20T09:01:53;17.10;99.90
31131;DHT22;20292;50.944;4.034;2022-10-20T09:04:37;17.00;99.90
31131;DHT22;20292;50.944;4.034;2022-10-20T09:07:20;16.80;99.90
31131;DHT22;20292;50.944;4.034;2022-10-20T09:09:47;16.40;99.90
31131;DHT22;20292;50.944;4.034;2022-10-20T09:12:13;16.30;99.90
31131;DHT22;20292;50.944;4.034;2022-10-20T09:14:40;16.30;99.90
31131;DHT22;20292;50.944;4.034;2022-10-20T09:17:13;16.40;99.90
31131;DHT22;20292;50.944;4.034;2022-10-20T09:19:45;16.60;99.90
31131;DHT22;20292;50.944;4.034;2022-10-20T09:22:13;16.70;99.90
31131;DHT22;20292;50.944;4.034;2022-10-20T09:24:40;16.80;99.90
31131;DHT22;20292;50.944;4.034;2022-10-20T09:27:32;17.10;99.90
31131;DHT22;20292;50.944;4.034;2022-10-20T09:30:15;17.30;99.90
31131;DHT22;20292;50.944;4.034;2022-10-20T09:32:41;17.40;99.90
31131;DHT22;20292;50.944;4.034;2022-10-20T09:40:43;18.00;99.90
31131;DHT22;20292;50.944;4.034;2022-10-20T09:43:11;18.20;99.90
31131;DHT22;20292;50.944;4.034;2022-10-20T09:45:55;18.20;99.90
31131;DHT22;20292;50.944;4.034;2022-10-20T09:48:26;18.30;99.90
31131;DHT22;20292;50.944;4.034;2022-10-20T09:50:54;18.50;99.90
31131;DHT22;20292;50.944;4.034;2022-10-20T09:53:26;18.60;99.90
31131;DHT22;20292;50.944;4.034;2022-10-20T09:55:53;18.70;99.90
31131;DHT22;20292;50.944;4.034;2022-10-20T09:58:36;18.90;99.90
31131;DHT22;20292;50.944;4.034;2022-10-20T10:01:12;19.00;99.90
31131;DHT22;20292;50.944;4.034;2022-10-20T10:03:44;19.20;99.90
31131;DHT22;20292;50.944;4.034;2022-10-20T10:08:46;19.50;99.90
31131;DHT22;20292;50.944;4.034;2022-10-20T10:11:17;19.60;99.90
31131;DHT22;20292;50.944;4.034;2022-10-20T10:13:46;19.60;99.90
31131;DHT22;20292;50.944;4.034;2022-10-20T10:16:13;19.60;99.90
31131;DHT22;20292;50.944;4.034;2022-10-20T10:18:43;19.50;99.90
31131;DHT22;20292;50.944;4.034;2022-10-20T10:21:12;19.40;99.90
31131;DHT22;20292;50.944;4.034;2022-10-20T10:23:54;19.40;99.90
31131;DHT22;20292;50.944;4.034;2022-10-20T10:29:34;19.10;99.90
31131;DHT22;20292;50.944;4.034;2022-10-20T10:32:02;19.20;99.90
31131;DHT22;20292;50.944;4.034;2022-10-20T10:37:02;19.40;99.90
31131;DHT22;20292;50.944;4.034;2022-10-20T10:39:30;19.50;99.90
31131;DHT22;20292;50.944;4.034;2022-10-20T10:44:42;19.70;99.90
31131;DHT22;20292;50.944;4.034;2022-10-20T10:50:51;19.80;99.90
31131;DHT22;20292;50.944;4.034;2022-10-20T10:53:41;19.80;99.90
31131;DHT22;20292;50.944;4.034;2022-10-20T10:56:19;19.80;99.90
31131;DHT22;20292;50.944;4.034;2022-10-20T10:59:09;19.90;99.90
31131;DHT22;20292;50.944;4.034;2022-10-20T11:04:52;20.10;99.90
31131;DHT22;20292;50.944;4.034;2022-10-20T11:10:16;20.40;99.90
31131;DHT22;20292;50.944;4.034;2022-10-20T11:27:12;20.60;99.90
31131;DHT22;20292;50.944;4.034;2022-10-20T11:29:44;20.70;99.90
31131;DHT22;20292;50.944;4.034;2022-10-20T11:34:54;20.80;99.90
31131;DHT22;20292;50.944;4.034;2022-10-20T11:37:25;20.70;99.90
31131;DHT22;20292;50.944;4.034;2022-10-20T11:40:02;20.80;99.90
31131;DHT22;20292;50.944;4.034;2022-10-20T11:48:07;20.60;99.90
31131;DHT22;20292;50.944;4.034;2022-10-20T11:50:34;20.50;99.90
31131;DHT22;20292;50.944;4.034;2022-10-20T11:58:20;20.50;99.90
31131;DHT22;20292;50.944;4.034;2022-10-20T12:12:24;20.10;99.90
31131;DHT22;20292;50.944;4.034;2022-10-20T12:14:56;20.10;99.90
31131;DHT22;20292;50.944;4.034;2022-10-20T12:17:30;20.20;99.90
31131;DHT22;20292;50.944;4.034;2022-10-20T12:22:53;20.10;99.90
31131;DHT22;20292;50.944;4.034;2022-10-20T12:30:56;20.10;99.90
31131;DHT22;20292;50.944;4.034;2022-10-20T12:39:05;20.20;99.90
31131;DHT22;20292;50.944;4.034;2022-10-20T12:41:34;20.20;99.90
31131;DHT22;20292;50.944;4.034;2022-10-20T12:44:05;20.20;99.90
31131;DHT22;20292;50.944;4.034;2022-10-20T12:46:34;20.30;99.90
31131;DHT22;20292;50.944;4.034;2022-10-20T12:49:06;20.20;99.90
31131;DHT22;20292;50.944;4.034;2022-10-20T12:51:38;20.30;99.90
31131;DHT22;20292;50.944;4.034;2022-10-20T12:54:18;20.40;99.90
31131;DHT22;20292;50.944;4.034;2022-10-20T12:56:46;20.50;99.90
31131;DHT22;20292;50.944;4.034;2022-10-20T12:59:39;20.60;99.90
31131;DHT22;20292;50.944;4.034;2022-10-20T13:15:42;21.10;99.90
31131;DHT22;20292;50.944;4.034;2022-10-20T13:20:57;21.20;99.90
31131;DHT22;20292;50.944;4.034;2022-10-20T13:23:40;21.20;99.90
31131;DHT22;20292;50.944;4.034;2022-10-20T13:28:56;21.10;99.90
31131;DHT22;20292;50.944;4.034;2022-10-20T13:31:35;21.00;99.90
31131;DHT22;20292;50.944;4.034;2022-10-20T13:34:27;21.00;99.90
31131;DHT22;20292;50.944;4.034;2022-10-20T13:42:46;20.90;99.90
31131;DHT22;20292;50.944;4.034;2022-10-20T13:45:32;20.90;99.90
31131;DHT22;20292;50.944;4.034;2022-10-20T13:50:40;20.80;99.90
31131;DHT22;20292;50.944;4.034;2022-10-20T13:53:21;20.70;99.90
31131;DHT22;20292;50.944;4.034;2022-10-20T13:56:06;20.80;99.90
31131;DHT22;20292;50.944;4.034;2022-10-20T13:58:33;20.80;99.90
31131;DHT22;20292;50.944;4.034;2022-10-20T14:01:05;20.80;99.90
31131;DHT22;20292;50.944;4.034;2022-10-20T14:03:39;20.80;99.90
31131;DHT22;20292;50.944;4.034;2022-10-20T14:06:05;20.80;99.90
31131;DHT22;20292;50.944;4.034;2022-10-20T14:08:41;20.70;99.90
31131;DHT22;20292;50.944;4.034;2022-10-20T14:11:07;20.80;99.90
31131;DHT22;20292;50.944;4.034;2022-10-20T14:13:35;20.80;99.90
31131;DHT22;20292;50.944;4.034;2022-10-20T14:16:04;20.70;99.90
31131;DHT22;20292;50.944;4.034;2022-10-20T14:18:33;20.70;99.90
31131;DHT22;20292;50.944;4.034;2022-10-20T14:21:03;20.70;99.90
31131;DHT22;20292;50.944;4.034;2022-10-20T14:23:37;20.70;99.90
31131;DHT22;20292;50.944;4.034;2022-10-20T14:26:14;20.80;99.90
31131;DHT22;20292;50.944;4.034;2022-10-20T14:28:40;20.70;99.90
31131;DHT22;20292;50.944;4.034;2022-10-20T14:31:09;20.70;99.90
31131;DHT22;20292;50.944;4.034;2022-10-20T14:33:43;20.70;99.90
31131;DHT22;20292;50.944;4.034;2022-10-20T14:36:28;20.70;99.90
31131;DHT22;20292;50.944;4.034;2022-10-20T14:38:56;20.60;99.90
31131;DHT22;20292;50.944;4.034;2022-10-20T14:41:29;20.60;99.90
31131;DHT22;20292;50.944;4.034;2022-10-20T14:44:01;20.60;99.90
31131;DHT22;20292;50.944;4.034;2022-10-20T14:46:35;20.60;99.90
31131;DHT22;20292;50.944;4.034;2022-10-20T14:49:02;20.70;99.90
31131;DHT22;20292;50.944;4.034;2022-10-20T14:51:38;20.80;99.90
31131;DHT22;20292;50.944;4.034;2022-10-20T14:57:00;20.70;99.90
31131;DHT22;20292;50.944;4.034;2022-10-20T14:59:31;20.80;99.90
31131;DHT22;20292;50.944;4.034;2022-10-20T15:02:14;20.80;99.90
31131;DHT22;20292;50.944;4.034;2022-10-20T15:04:44;20.90;99.90
31131;DHT22;20292;50.944;4.034;2022-10-20T15:07:26;20.90;99.90
31131;DHT22;20292;50.944;4.034;2022-10-20T15:09:58;21.00;99.90
31131;DHT22;20292;50.944;4.034;2022-10-20T15:12:31;21.00;99.90
31131;DHT22;20292;50.944;4.034;2022-10-20T15:15:23;21.10;99.90
31131;DHT22;20292;50.944;4.034;2022-10-20T15:22:56;21.10;99.90
31131;DHT22;20292;50.944;4.034;2022-10-20T15:25:23;21.00;99.90
31131;DHT22;20292;50.944;4.034;2022-10-20T15:27:50;21.20;99.90
31131;DHT22;20292;50.944;4.034;2022-10-20T15:30:20;21.20;99.90
31131;DHT22;20292;50.944;4.034;2022-10-20T15:32:46;21.20;99.90
31131;DHT22;20292;50.944;4.034;2022-10-20T15:35:14;21.20;99.90
31131;DHT22;20292;50.944;4.034;2022-10-20T15:37:46;21.30;99.90
31131;DHT22;20292;50.944;4.034;2022-10-20T15:40:12;21.20;99.90
31131;DHT22;20292;50.944;4.034;2022-10-20T15:42:38;21.30;99.90
31131;DHT22;20292;50.944;4.034;2022-10-20T15:45:22;21.30;99.90
31131;DHT22;20292;50.944;4.034;2022-10-20T15:47:48;21.20;99.90
31131;DHT22;20292;50.944;4.034;2022-10-20T15:50:16;21.20;99.90
31131;DHT22;20292;50.944;4.034;2022-10-20T15:52:42;21.20;99.90
31131;DHT22;20292;50.944;4.034;2022-10-20T15:57:49;21.20;99.90
31131;DHT22;20292;50.944;4.034;2022-10-20T16:00:16;21.20;99.90
31131;DHT22;20292;50.944;4.034;2022-10-20T16:02:42;21.30;99.90
31131;DHT22;20292;50.944;4.034;2022-10-20T16:05:08;21.40;99.90
31131;DHT22;20292;50.944;4.034;2022-10-20T16:07:34;21.40;99.90
31131;DHT22;20292;50.944;4.034;2022-10-20T16:09:59;21.40;99.90
31131;DHT22;20292;50.944;4.034;2022-10-20T16:12:25;21.40;99.90
31131;DHT22;20292;50.944;4.034;2022-10-20T16:14:51;21.40;99.90
31131;DHT22;20292;50.944;4.034;2022-10-20T16:17:17;21.30;99.90
31131;DHT22;20292;50.944;4.034;2022-10-20T16:19:42;21.20;99.90
31131;DHT22;20292;50.944;4.034;2022-10-20T16:22:08;21.10;99.90
31131;DHT22;20292;50.944;4.034;2022-10-20T16:24:33;21.00;99.90
31131;DHT22;20292;50.944;4.034;2022-10-20T16:26:59;21.00;99.90
31131;DHT22;20292;50.944;4.034;2022-10-20T16:29:24;21.00;99.90
31131;DHT22;20292;50.944;4.034;2022-10-20T16:31:50;20.90;99.90
31131;DHT22;20292;50.944;4.034;2022-10-20T16:34:16;20.90;99.90
31131;DHT22;20292;50.944;4.034;2022-10-20T16:36:41;20.80;99.90
31131;DHT22;20292;50.944;4.034;2022-10-20T16:39:07;20.70;99.90
31131;DHT22;20292;50.944;4.034;2022-10-20T16:41:33;20.70;99.90
31131;DHT22;20292;50.944;4.034;2022-10-20T16:43:58;20.70;99.90
31131;DHT22;20292;50.944;4.034;2022-10-20T16:46:24;20.60;99.90
31131;DHT22;20292;50.944;4.034;2022-10-20T16:48:49;20.50;99.90
31131;DHT22;20292;50.944;4.034;2022-10-20T16:51:15;20.60;99.90
31131;DHT22;20292;50.944;4.034;2022-10-20T16:53:42;20.60;99.90
31131;DHT22;20292;50.944;4.034;2022-10-20T16:56:08;20.60;99.90
31131;DHT22;20292;50.944;4.034;2022-10-20T16:58:34;20.60;99.90
31131;DHT22;20292;50.944;4.034;2022-10-20T17:01:04;20.60;99.90
31131;DHT22;20292;50.944;4.034;2022-10-20T17:03:31;20.60;99.90
31131;DHT22;20292;50.944;4.034;2022-10-20T17:05:58;20.60;99.90
31131;DHT22;20292;50.944;4.034;2022-10-20T17:08:24;20.60;99.90
31131;DHT22;20292;50.944;4.034;2022-10-20T17:10:58;20.50;99.90
31131;DHT22;20292;50.944;4.034;2022-10-20T17:13:24;20.50;99.90
31131;DHT22;20292;50.944;4.034;2022-10-20T17:15:50;20.60;99.90
31131;DHT22;20292;50.944;4.034;2022-10-20T17:18:16;20.60;99.90
31131;DHT22;20292;50.944;4.034;2022-10-20T17:20:42;20.60;99.90
31131;DHT22;20292;50.944;4.034;2022-10-20T17:23:07;20.60;99.90
31131;DHT22;20292;50.944;4.034;2022-10-20T17:25:33;20.50;99.90
31131;DHT22;20292;50.944;4.034;2022-10-20T17:27:58;20.60;99.90
31131;DHT22;20292;50.944;4.034;2022-10-20T17:30:26;20.50;99.90
31131;DHT22;20292;50.944;4.034;2022-10-20T17:32:54;20.50;99.90
31131;DHT22;20292;50.944;4.034;2022-10-20T17:35:19;20.50;99.90
31131;DHT22;20292;50.944;4.034;2022-10-20T17:37:45;20.50;99.90
31131;DHT22;20292;50.944;4.034;2022-10-20T17:40:10;20.40;99.90
31131;DHT22;20292;50.944;4.034;2022-10-20T17:42:36;20.40;99.90
31131;DHT22;20292;50.944;4.034;2022-10-20T17:45:02;20.30;99.90
31131;DHT22;20292;50.944;4.034;2022-10-20T17:47:27;20.30;99.90
31131;DHT22;20292;50.944;4.034;2022-10-20T17:49:53;20.30;99.90
31131;DHT22;20292;50.944;4.034;2022-10-20T17:52:18;20.20;99.90
31131;DHT22;20292;50.944;4.034;2022-10-20T17:54:44;20.30;99.90
31131;DHT22;20292;50.944;4.034;2022-10-20T17:57:10;20.40;99.90
31131;DHT22;20292;50.944;4.034;2022-10-20T17:59:35;20.40;99.90
31131;DHT22;20292;50.944;4.034;2022-10-20T18:02:01;20.30;99.90